ENAL/AES METAR and TAF weather

Enter ICAO airport designator
Station Type Date Time Source
ENAL METAR 2020/01/18 04:20 UTC NOAA

ENAL 180420Z AUTO 19012KT 9999 BKN051/// 08/00 Q0997


Station Type Date Time Source
ENAL Decoded METAR 2020/01/18 04:20 UTC NOAA

Alesund / Vigra, Norway (ENAL) 62-34N 006-07E 22M
Jan 17, 2020 - 11:20 PM EST / 2020.01.18 0420 UTC
Wind: from the S (190 degrees) at 14 MPH (12 KT):0
Visibility: greater than 7 mile(s):0
Sky conditions: mostly cloudy
Temperature: 46 F (8 C)
Dew Point: 32 F (0 C)
Relative Humidity: 56%
Pressure (altimeter): 29.44 in. Hg (0997 hPa)
ob: ENAL 180420Z AUTO 19012KT 9999 BKN051/// 08/00 Q0997
cycle: 4

Station Type Date Time Source
ENAL TAF UTC NOAA

Error!

Example: see airport list